sensor_id;sensor_type;location;lat;lon;timestamp;temperature;humidity
68912;SHT31;55953;51.650;-0.522;2023-01-29T00:00:07;5.66;81.40
68912;SHT31;55953;51.650;-0.522;2023-01-29T00:02:59;5.63;81.45
68912;SHT31;55953;51.650;-0.522;2023-01-29T00:05:27;5.61;81.63
68912;SHT31;55953;51.650;-0.522;2023-01-29T00:07:55;5.59;81.84
68912;SHT31;55953;51.650;-0.522;2023-01-29T00:10:24;5.67;81.65
68912;SHT31;55953;51.650;-0.522;2023-01-29T00:12:52;5.67;81.61
68912;SHT31;55953;51.650;-0.522;2023-01-29T00:15:21;5.64;81.68
68912;SHT31;55953;51.650;-0.522;2023-01-29T00:17:49;5.60;81.83
68912;SHT31;55953;51.650;-0.522;2023-01-29T00:20:17;5.66;81.97
68912;SHT31;55953;51.650;-0.522;2023-01-29T00:22:46;5.74;81.78
68912;SHT31;55953;51.650;-0.522;2023-01-29T00:25:14;5.79;81.71
68912;SHT31;55953;51.650;-0.522;2023-01-29T00:27:42;5.81;81.54
68912;SHT31;55953;51.650;-0.522;2023-01-29T00:30:11;5.74;81.69
68912;SHT31;55953;51.650;-0.522;2023-01-29T00:32:40;5.70;81.90
68912;SHT31;55953;51.650;-0.522;2023-01-29T00:35:08;5.69;82.01
68912;SHT31;55953;51.650;-0.522;2023-01-29T00:37:36;5.67;82.02
68912;SHT31;55953;51.650;-0.522;2023-01-29T00:40:05;5.70;82.13
68912;SHT31;55953;51.650;-0.522;2023-01-29T00:42:35;5.73;82.11
68912;SHT31;55953;51.650;-0.522;2023-01-29T00:45:22;5.67;82.15
68912;SHT31;55953;51.650;-0.522;2023-01-29T00:47:50;5.59;82.43
68912;SHT31;55953;51.650;-0.522;2023-01-29T00:50:17;5.61;82.46
68912;SHT31;55953;51.650;-0.522;2023-01-29T00:52:46;5.60;82.40
68912;SHT31;55953;51.650;-0.522;2023-01-29T00:55:16;5.61;82.46
68912;SHT31;55953;51.650;-0.522;2023-01-29T00:57:45;5.64;82.28
68912;SHT31;55953;51.650;-0.522;2023-01-29T01:00:14;5.60;82.34
68912;SHT31;55953;51.650;-0.522;2023-01-29T01:02:45;5.62;82.41
68912;SHT31;55953;51.650;-0.522;2023-01-29T01:05:32;5.63;82.35
68912;SHT31;55953;51.650;-0.522;2023-01-29T01:08:00;5.66;82.37
68912;SHT31;55953;51.650;-0.522;2023-01-29T01:10:29;5.69;82.36
68912;SHT31;55953;51.650;-0.522;2023-01-29T01:13:00;5.69;82.29
68912;SHT31;55953;51.650;-0.522;2023-01-29T01:15:36;5.68;82.31
68912;SHT31;55953;51.650;-0.522;2023-01-29T01:18:06;5.68;82.37
68912;SHT31;55953;51.650;-0.522;2023-01-29T01:20:34;5.65;82.37
68912;SHT31;55953;51.650;-0.522;2023-01-29T01:23:02;5.61;82.53
68912;SHT31;55953;51.650;-0.522;2023-01-29T01:25:31;5.63;82.52
68912;SHT31;55953;51.650;-0.522;2023-01-29T01:28:00;5.65;82.48
68912;SHT31;55953;51.650;-0.522;2023-01-29T01:30:28;5.63;82.49
68912;SHT31;55953;51.650;-0.522;2023-01-29T01:32:56;5.63;82.58
68912;SHT31;55953;51.650;-0.522;2023-01-29T01:35:24;5.62;82.62
68912;SHT31;55953;51.650;-0.522;2023-01-29T01:37:52;5.66;82.60
68912;SHT31;55953;51.650;-0.522;2023-01-29T01:40:21;5.68;82.47
68912;SHT31;55953;51.650;-0.522;2023-01-29T01:42:55;5.63;82.48
68912;SHT31;55953;51.650;-0.522;2023-01-29T01:45:29;5.64;82.63
68912;SHT31;55953;51.650;-0.522;2023-01-29T01:50:47;5.60;82.68
68912;SHT31;55953;51.650;-0.522;2023-01-29T01:53:25;5.63;82.73
68912;SHT31;55953;51.650;-0.522;2023-01-29T01:56:07;5.74;82.70
68912;SHT31;55953;51.650;-0.522;2023-01-29T01:58:48;5.78;82.43
68912;SHT31;55953;51.650;-0.522;2023-01-29T02:01:22;5.75;82.48
68912;SHT31;55953;51.650;-0.522;2023-01-29T02:04:07;5.80;82.41
68912;SHT31;55953;51.650;-0.522;2023-01-29T02:07:02;5.76;82.42
68912;SHT31;55953;51.650;-0.522;2023-01-29T02:10:04;5.74;82.51
68912;SHT31;55953;51.650;-0.522;2023-01-29T02:12:38;5.78;82.39
68912;SHT31;55953;51.650;-0.522;2023-01-29T02:15:07;5.71;82.43
68912;SHT31;55953;51.650;-0.522;2023-01-29T02:17:36;5.69;82.74
68912;SHT31;55953;51.650;-0.522;2023-01-29T02:20:19;5.73;82.65
68912;SHT31;55953;51.650;-0.522;2023-01-29T02:25:37;5.68;82.57
68912;SHT31;55953;51.650;-0.522;2023-01-29T02:28:46;5.72;82.73
68912;SHT31;55953;51.650;-0.522;2023-01-29T02:35:31;5.72;82.60
68912;SHT31;55953;51.650;-0.522;2023-01-29T02:41:12;5.60;82.90
68912;SHT31;55953;51.650;-0.522;2023-01-29T02:43:59;5.60;82.97
68912;SHT31;55953;51.650;-0.522;2023-01-29T02:52:21;5.76;82.61
68912;SHT31;55953;51.650;-0.522;2023-01-29T02:57:45;5.71;82.81
68912;SHT31;55953;51.650;-0.522;2023-01-29T03:02:56;5.79;82.57
68912;SHT31;55953;51.650;-0.522;2023-01-29T03:06:14;5.78;82.66
68912;SHT31;55953;51.650;-0.522;2023-01-29T03:08:49;5.84;82.56
68912;SHT31;55953;51.650;-0.522;2023-01-29T03:11:27;5.80;82.48
68912;SHT31;55953;51.650;-0.522;2023-01-29T03:14:07;5.81;82.62
68912;SHT31;55953;51.650;-0.522;2023-01-29T03:19:34;5.95;82.33
68912;SHT31;55953;51.650;-0.522;2023-01-29T03:22:15;5.94;82.23
68912;SHT31;55953;51.650;-0.522;2023-01-29T03:27:54;6.03;82.19
68912;SHT31;55953;51.650;-0.522;2023-01-29T03:30:47;5.95;82.08
68912;SHT31;55953;51.650;-0.522;2023-01-29T03:33:50;5.86;82.32
68912;SHT31;55953;51.650;-0.522;2023-01-29T03:36:54;5.85;82.44
68912;SHT31;55953;51.650;-0.522;2023-01-29T03:39:28;5.86;82.30
68912;SHT31;55953;51.650;-0.522;2023-01-29T03:42:00;5.83;82.34
68912;SHT31;55953;51.650;-0.522;2023-01-29T03:50:48;5.73;82.31
68912;SHT31;55953;51.650;-0.522;2023-01-29T03:53:43;5.69;82.55
68912;SHT31;55953;51.650;-0.522;2023-01-29T04:02:18;5.62;82.62
68912;SHT31;55953;51.650;-0.522;2023-01-29T04:04:56;5.56;82.59
68912;SHT31;55953;51.650;-0.522;2023-01-29T04:07:32;5.57;82.62
68912;SHT31;55953;51.650;-0.522;2023-01-29T04:10:08;5.57;82.55
68912;SHT31;55953;51.650;-0.522;2023-01-29T04:13:05;5.62;82.57
68912;SHT31;55953;51.650;-0.522;2023-01-29T04:15:40;5.69;82.50
68912;SHT31;55953;51.650;-0.522;2023-01-29T04:18:14;5.70;82.26
68912;SHT31;55953;51.650;-0.522;2023-01-29T04:21:05;5.68;82.35
68912;SHT31;55953;51.650;-0.522;2023-01-29T04:23:33;5.63;82.32
68912;SHT31;55953;51.650;-0.522;2023-01-29T04:43:20;5.15;82.63
68912;SHT31;55953;51.650;-0.522;2023-01-29T04:51:48;5.14;82.58
68912;SHT31;55953;51.650;-0.522;2023-01-29T04:57:18;5.22;82.45
68912;SHT31;55953;51.650;-0.522;2023-01-29T05:00:06;5.05;82.65
68912;SHT31;55953;51.650;-0.522;2023-01-29T05:02:43;5.05;83.13
68912;SHT31;55953;51.650;-0.522;2023-01-29T05:05:12;5.09;83.04
68912;SHT31;55953;51.650;-0.522;2023-01-29T05:07:45;5.09;83.02
68912;SHT31;55953;51.650;-0.522;2023-01-29T05:10:17;5.11;83.22
68912;SHT31;55953;51.650;-0.522;2023-01-29T05:12:48;5.17;83.04
68912;SHT31;55953;51.650;-0.522;2023-01-29T05:15:26;5.15;83.10
68912;SHT31;55953;51.650;-0.522;2023-01-29T05:18:06;5.13;83.22
68912;SHT31;55953;51.650;-0.522;2023-01-29T05:20:36;5.10;83.28
68912;SHT31;55953;51.650;-0.522;2023-01-29T05:23:08;5.08;83.38
68912;SHT31;55953;51.650;-0.522;2023-01-29T05:25:47;5.03;83.51
68912;SHT31;55953;51.650;-0.522;2023-01-29T05:28:17;5.05;83.66
68912;SHT31;55953;51.650;-0.522;2023-01-29T05:30:47;5.08;83.44
68912;SHT31;55953;51.650;-0.522;2023-01-29T05:33:22;5.01;83.39
68912;SHT31;55953;51.650;-0.522;2023-01-29T05:35:52;4.99;83.57
68912;SHT31;55953;51.650;-0.522;2023-01-29T05:38:22;4.93;83.53
68912;SHT31;55953;51.650;-0.522;2023-01-29T05:40:50;4.93;83.58
68912;SHT31;55953;51.650;-0.522;2023-01-29T05:43:27;4.91;83.57
68912;SHT31;55953;51.650;-0.522;2023-01-29T05:45:56;4.91;83.65
68912;SHT31;55953;51.650;-0.522;2023-01-29T05:48:27;4.90;83.48
68912;SHT31;55953;51.650;-0.522;2023-01-29T05:51:01;4.81;83.50
68912;SHT31;55953;51.650;-0.522;2023-01-29T05:53:31;4.74;83.52
68912;SHT31;55953;51.650;-0.522;2023-01-29T05:56:00;4.63;83.69
68912;SHT31;55953;51.650;-0.522;2023-01-29T05:58:30;4.58;83.90
68912;SHT31;55953;51.650;-0.522;2023-01-29T06:01:07;4.52;84.11
68912;SHT31;55953;51.650;-0.522;2023-01-29T06:03:40;4.50;84.28
68912;SHT31;55953;51.650;-0.522;2023-01-29T06:06:08;4.48;84.41
68912;SHT31;55953;51.650;-0.522;2023-01-29T06:08:36;4.50;84.31
68912;SHT31;55953;51.650;-0.522;2023-01-29T06:11:09;4.50;84.29
68912;SHT31;55953;51.650;-0.522;2023-01-29T06:13:39;4.48;84.46
68912;SHT31;55953;51.650;-0.522;2023-01-29T06:16:08;4.48;84.57
68912;SHT31;55953;51.650;-0.522;2023-01-29T06:18:38;4.50;84.43
68912;SHT31;55953;51.650;-0.522;2023-01-29T06:21:09;4.51;84.31
68912;SHT31;55953;51.650;-0.522;2023-01-29T06:23:39;4.50;84.34
68912;SHT31;55953;51.650;-0.522;2023-01-29T06:26:09;4.48;84.38
68912;SHT31;55953;51.650;-0.522;2023-01-29T06:28:41;4.47;84.39
68912;SHT31;55953;51.650;-0.522;2023-01-29T06:31:10;4.48;84.33
68912;SHT31;55953;51.650;-0.522;2023-01-29T06:33:58;4.49;84.34
68912;SHT31;55953;51.650;-0.522;2023-01-29T06:36:26;4.49;84.31
68912;SHT31;55953;51.650;-0.522;2023-01-29T06:38:53;4.47;84.41
68912;SHT31;55953;51.650;-0.522;2023-01-29T06:41:21;4.46;84.43
68912;SHT31;55953;51.650;-0.522;2023-01-29T06:43:52;4.45;84.44
68912;SHT31;55953;51.650;-0.522;2023-01-29T06:46:20;4.47;84.48
68912;SHT31;55953;51.650;-0.522;2023-01-29T06:48:48;4.50;84.42
68912;SHT31;55953;51.650;-0.522;2023-01-29T06:51:16;4.49;84.41
68912;SHT31;55953;51.650;-0.522;2023-01-29T06:53:44;4.52;84.45
68912;SHT31;55953;51.650;-0.522;2023-01-29T06:56:13;4.55;84.38
68912;SHT31;55953;51.650;-0.522;2023-01-29T06:58:41;4.55;84.35
68912;SHT31;55953;51.650;-0.522;2023-01-29T07:01:10;4.55;84.31
68912;SHT31;55953;51.650;-0.522;2023-01-29T07:03:55;4.55;84.36
68912;SHT31;55953;51.650;-0.522;2023-01-29T07:06:29;4.55;84.32
68912;SHT31;55953;51.650;-0.522;2023-01-29T07:08:58;4.55;84.40
68912;SHT31;55953;51.650;-0.522;2023-01-29T07:11:26;4.55;84.41
68912;SHT31;55953;51.650;-0.522;2023-01-29T07:13:54;4.54;84.42
68912;SHT31;55953;51.650;-0.522;2023-01-29T07:16:22;4.55;84.36
68912;SHT31;55953;51.650;-0.522;2023-01-29T07:18:51;4.54;84.30
68912;SHT31;55953;51.650;-0.522;2023-01-29T07:21:19;4.52;84.37
68912;SHT31;55953;51.650;-0.522;2023-01-29T07:23:47;4.51;84.43
68912;SHT31;55953;51.650;-0.522;2023-01-29T07:26:15;4.52;84.35
68912;SHT31;55953;51.650;-0.522;2023-01-29T07:28:43;4.50;84.42
68912;SHT31;55953;51.650;-0.522;2023-01-29T07:31:12;4.48;84.63
68912;SHT31;55953;51.650;-0.522;2023-01-29T07:33:42;4.47;84.68
68912;SHT31;55953;51.650;-0.522;2023-01-29T07:36:11;4.47;84.75
68912;SHT31;55953;51.650;-0.522;2023-01-29T07:38:40;4.50;84.73
68912;SHT31;55953;51.650;-0.522;2023-01-29T07:41:09;4.50;84.75
68912;SHT31;55953;51.650;-0.522;2023-01-29T07:43:38;4.50;84.79
68912;SHT31;55953;51.650;-0.522;2023-01-29T07:46:06;4.53;84.86
68912;SHT31;55953;51.650;-0.522;2023-01-29T07:48:34;4.51;84.76
68912;SHT31;55953;51.650;-0.522;2023-01-29T07:51:02;4.48;85.01
68912;SHT31;55953;51.650;-0.522;2023-01-29T07:53:30;4.44;85.15
68912;SHT31;55953;51.650;-0.522;2023-01-29T07:55:59;4.42;85.27
68912;SHT31;55953;51.650;-0.522;2023-01-29T07:58:27;4.41;85.47
68912;SHT31;55953;51.650;-0.522;2023-01-29T08:00:55;4.41;85.34
68912;SHT31;55953;51.650;-0.522;2023-01-29T08:03:22;4.44;85.46
68912;SHT31;55953;51.650;-0.522;2023-01-29T08:05:51;4.48;85.49
68912;SHT31;55953;51.650;-0.522;2023-01-29T08:08:18;4.46;85.54
68912;SHT31;55953;51.650;-0.522;2023-01-29T08:10:46;4.48;85.54
68912;SHT31;55953;51.650;-0.522;2023-01-29T08:13:14;4.53;85.54
68912;SHT31;55953;51.650;-0.522;2023-01-29T08:15:42;4.55;85.48
68912;SHT31;55953;51.650;-0.522;2023-01-29T08:18:14;4.56;85.40
68912;SHT31;55953;51.650;-0.522;2023-01-29T08:20:42;4.54;85.57
68912;SHT31;55953;51.650;-0.522;2023-01-29T08:23:14;4.57;85.63
68912;SHT31;55953;51.650;-0.522;2023-01-29T08:25:43;4.61;85.64
68912;SHT31;55953;51.650;-0.522;2023-01-29T08:28:11;4.66;85.54
68912;SHT31;55953;51.650;-0.522;2023-01-29T08:30:39;4.69;85.48
68912;SHT31;55953;51.650;-0.522;2023-01-29T08:33:08;4.69;85.44
68912;SHT31;55953;51.650;-0.522;2023-01-29T08:35:36;4.72;85.44
68912;SHT31;55953;51.650;-0.522;2023-01-29T08:38:05;4.77;85.35
68912;SHT31;55953;51.650;-0.522;2023-01-29T08:40:33;4.82;85.25
68912;SHT31;55953;51.650;-0.522;2023-01-29T08:43:05;4.85;85.24
68912;SHT31;55953;51.650;-0.522;2023-01-29T08:45:37;4.89;85.19
68912;SHT31;55953;51.650;-0.522;2023-01-29T08:48:08;4.93;85.13
68912;SHT31;55953;51.650;-0.522;2023-01-29T08:50:37;4.95;84.97
68912;SHT31;55953;51.650;-0.522;2023-01-29T08:53:06;4.97;85.04
68912;SHT31;55953;51.650;-0.522;2023-01-29T08:55:36;5.01;85.00
68912;SHT31;55953;51.650;-0.522;2023-01-29T08:58:07;5.06;84.96
68912;SHT31;55953;51.650;-0.522;2023-01-29T09:00:37;5.11;84.88
68912;SHT31;55953;51.650;-0.522;2023-01-29T09:03:06;5.14;84.77
68912;SHT31;55953;51.650;-0.522;2023-01-29T09:05:36;5.13;84.79
68912;SHT31;55953;51.650;-0.522;2023-01-29T09:08:07;5.13;84.89
68912;SHT31;55953;51.650;-0.522;2023-01-29T09:10:37;5.16;84.85
68912;SHT31;55953;51.650;-0.522;2023-01-29T09:13:04;5.17;84.91
68912;SHT31;55953;51.650;-0.522;2023-01-29T09:15:33;5.18;85.05
68912;SHT31;55953;51.650;-0.522;2023-01-29T09:18:04;5.18;85.08
68912;SHT31;55953;51.650;-0.522;2023-01-29T09:20:32;5.21;85.15
68912;SHT31;55953;51.650;-0.522;2023-01-29T09:23:07;5.26;85.06
68912;SHT31;55953;51.650;-0.522;2023-01-29T09:25:37;5.29;85.15
68912;SHT31;55953;51.650;-0.522;2023-01-29T09:28:05;5.30;85.16
68912;SHT31;55953;51.650;-0.522;2023-01-29T09:30:33;5.36;85.19
68912;SHT31;55953;51.650;-0.522;2023-01-29T09:33:04;5.44;85.21
68912;SHT31;55953;51.650;-0.522;2023-01-29T09:35:33;5.51;85.00
68912;SHT31;55953;51.650;-0.522;2023-01-29T09:38:01;5.57;84.95
68912;SHT31;55953;51.650;-0.522;2023-01-29T09:40:46;5.64;84.74
68912;SHT31;55953;51.650;-0.522;2023-01-29T09:43:20;5.64;84.62
68912;SHT31;55953;51.650;-0.522;2023-01-29T09:46:18;5.70;84.76
68912;SHT31;55953;51.650;-0.522;2023-01-29T09:48:57;5.77;84.62
68912;SHT31;55953;51.650;-0.522;2023-01-29T09:51:39;5.84;84.64
68912;SHT31;55953;51.650;-0.522;2023-01-29T09:54:20;5.88;84.56
68912;SHT31;55953;51.650;-0.522;2023-01-29T09:56:54;5.92;84.52
68912;SHT31;55953;51.650;-0.522;2023-01-29T09:59:25;6.00;84.55
68912;SHT31;55953;51.650;-0.522;2023-01-29T10:02:04;6.06;84.51
68912;SHT31;55953;51.650;-0.522;2023-01-29T10:11:25;6.22;84.75
68912;SHT31;55953;51.650;-0.522;2023-01-29T10:17:32;6.19;84.86
68912;SHT31;55953;51.650;-0.522;2023-01-29T10:23:41;6.34;84.73
68912;SHT31;55953;51.650;-0.522;2023-01-29T10:26:17;6.37;84.69
68912;SHT31;55953;51.650;-0.522;2023-01-29T10:28:53;6.43;84.63
68912;SHT31;55953;51.650;-0.522;2023-01-29T10:31:28;6.50;84.52
68912;SHT31;55953;51.650;-0.522;2023-01-29T10:34:01;6.56;84.47
68912;SHT31;55953;51.650;-0.522;2023-01-29T10:36:40;6.62;84.36
68912;SHT31;55953;51.650;-0.522;2023-01-29T10:39:16;6.62;84.28
68912;SHT31;55953;51.650;-0.522;2023-01-29T10:47:13;6.58;84.39
68912;SHT31;55953;51.650;-0.522;2023-01-29T10:52:49;6.73;84.20
68912;SHT31;55953;51.650;-0.522;2023-01-29T10:55:23;6.71;84.15
68912;SHT31;55953;51.650;-0.522;2023-01-29T11:00:54;6.72;84.17
68912;SHT31;55953;51.650;-0.522;2023-01-29T11:03:23;6.76;84.22
68912;SHT31;55953;51.650;-0.522;2023-01-29T11:06:14;6.84;84.26
68912;SHT31;55953;51.650;-0.522;2023-01-29T11:11:53;7.08;83.91
68912;SHT31;55953;51.650;-0.522;2023-01-29T11:17:19;7.22;83.51
68912;SHT31;55953;51.650;-0.522;2023-01-29T11:19:53;7.24;83.50
68912;SHT31;55953;51.650;-0.522;2023-01-29T11:22:23;7.27;83.51
68912;SHT31;55953;51.650;-0.522;2023-01-29T11:30:32;7.20;83.84
68912;SHT31;55953;51.650;-0.522;2023-01-29T11:33:16;7.16;84.06
68912;SHT31;55953;51.650;-0.522;2023-01-29T11:35:48;7.19;84.18
68912;SHT31;55953;51.650;-0.522;2023-01-29T11:38:25;7.24;84.19
68912;SHT31;55953;51.650;-0.522;2023-01-29T11:41:05;7.24;84.13
68912;SHT31;55953;51.650;-0.522;2023-01-29T11:43:44;7.20;84.31
68912;SHT31;55953;51.650;-0.522;2023-01-29T11:46:13;7.22;84.42
68912;SHT31;55953;51.650;-0.522;2023-01-29T11:51:28;7.35;84.38
68912;SHT31;55953;51.650;-0.522;2023-01-29T11:53:57;7.43;84.28
68912;SHT31;55953;51.650;-0.522;2023-01-29T11:56:33;7.52;84.11
68912;SHT31;55953;51.650;-0.522;2023-01-29T11:59:23;7.61;83.97
68912;SHT31;55953;51.650;-0.522;2023-01-29T12:02:02;7.72;83.83
68912;SHT31;55953;51.650;-0.522;2023-01-29T12:07:47;7.89;83.53
68912;SHT31;55953;51.650;-0.522;2023-01-29T12:10:37;7.88;83.26
68912;SHT31;55953;51.650;-0.522;2023-01-29T12:15:39;7.81;83.36
68912;SHT31;55953;51.650;-0.522;2023-01-29T12:18:13;7.80;83.50
68912;SHT31;55953;51.650;-0.522;2023-01-29T12:21:03;7.84;83.62
68912;SHT31;55953;51.650;-0.522;2023-01-29T12:23:54;7.89;83.48
68912;SHT31;55953;51.650;-0.522;2023-01-29T12:26:54;7.90;83.46
68912;SHT31;55953;51.650;-0.522;2023-01-29T12:32:28;7.96;83.36
68912;SHT31;55953;51.650;-0.522;2023-01-29T12:40:41;8.10;83.16
68912;SHT31;55953;51.650;-0.522;2023-01-29T12:43:15;8.19;83.15
68912;SHT31;55953;51.650;-0.522;2023-01-29T12:45:51;8.28;82.95
68912;SHT31;55953;51.650;-0.522;2023-01-29T12:48:26;8.40;83.01
68912;SHT31;55953;51.650;-0.522;2023-01-29T12:51:07;8.48;82.42
68912;SHT31;55953;51.650;-0.522;2023-01-29T12:56:33;8.37;82.57
68912;SHT31;55953;51.650;-0.522;2023-01-29T12:59:51;8.33;82.77
68912;SHT31;55953;51.650;-0.522;2023-01-29T13:02:19;8.34;82.71
68912;SHT31;55953;51.650;-0.522;2023-01-29T13:05:03;8.33;82.80
68912;SHT31;55953;51.650;-0.522;2023-01-29T13:07:46;8.35;82.85
68912;SHT31;55953;51.650;-0.522;2023-01-29T13:10:25;8.37;82.81
68912;SHT31;55953;51.650;-0.522;2023-01-29T13:13:05;8.47;82.90
68912;SHT31;55953;51.650;-0.522;2023-01-29T13:15:45;8.57;82.61
68912;SHT31;55953;51.650;-0.522;2023-01-29T13:21:16;8.53;82.53
68912;SHT31;55953;51.650;-0.522;2023-01-29T13:23:49;8.48;82.71
68912;SHT31;55953;51.650;-0.522;2023-01-29T13:26:28;8.45;82.79
68912;SHT31;55953;51.650;-0.522;2023-01-29T13:28:59;8.42;83.02
68912;SHT31;55953;51.650;-0.522;2023-01-29T13:31:35;8.42;83.05
68912;SHT31;55953;51.650;-0.522;2023-01-29T13:34:14;8.40;83.19
68912;SHT31;55953;51.650;-0.522;2023-01-29T13:36:47;8.42;83.18
68912;SHT31;55953;51.650;-0.522;2023-01-29T13:42:00;8.38;83.47
68912;SHT31;55953;51.650;-0.522;2023-01-29T13:44:42;8.37;83.46
68912;SHT31;55953;51.650;-0.522;2023-01-29T13:47:26;8.38;83.51
68912;SHT31;55953;51.650;-0.522;2023-01-29T13:50:32;8.41;83.60
68912;SHT31;55953;51.650;-0.522;2023-01-29T13:53:01;8.47;83.55
68912;SHT31;55953;51.650;-0.522;2023-01-29T13:55:32;8.55;83.51
68912;SHT31;55953;51.650;-0.522;2023-01-29T13:58:05;8.63;83.35
68912;SHT31;55953;51.650;-0.522;2023-01-29T14:13:44;8.73;83.32
68912;SHT31;55953;51.650;-0.522;2023-01-29T14:18:46;8.75;83.38
68912;SHT31;55953;51.650;-0.522;2023-01-29T14:21:30;8.79;83.37
68912;SHT31;55953;51.650;-0.522;2023-01-29T14:26:52;8.90;83.38
68912;SHT31;55953;51.650;-0.522;2023-01-29T14:29:23;8.96;83.23
68912;SHT31;55953;51.650;-0.522;2023-01-29T14:34:58;9.05;83.08
68912;SHT31;55953;51.650;-0.522;2023-01-29T14:37:32;9.05;82.98
68912;SHT31;55953;51.650;-0.522;2023-01-29T14:42:59;9.09;82.89
68912;SHT31;55953;51.650;-0.522;2023-01-29T14:45:46;9.11;82.89
68912;SHT31;55953;51.650;-0.522;2023-01-29T14:48:34;9.13;82.84
68912;SHT31;55953;51.650;-0.522;2023-01-29T14:51:06;9.16;82.90
68912;SHT31;55953;51.650;-0.522;2023-01-29T14:56:30;9.37;82.63
68912;SHT31;55953;51.650;-0.522;2023-01-29T15:01:51;9.50;82.22
68912;SHT31;55953;51.650;-0.522;2023-01-29T15:04:26;9.50;82.21
68912;SHT31;55953;51.650;-0.522;2023-01-29T15:07:35;9.49;82.05
68912;SHT31;55953;51.650;-0.522;2023-01-29T15:10:16;9.50;82.19
68912;SHT31;55953;51.650;-0.522;2023-01-29T15:15:50;9.55;82.03
68912;SHT31;55953;51.650;-0.522;2023-01-29T15:18:28;9.55;82.12
68912;SHT31;55953;51.650;-0.522;2023-01-29T15:21:25;9.57;82.12
68912;SHT31;55953;51.650;-0.522;2023-01-29T15:24:02;9.59;82.07
68912;SHT31;55953;51.650;-0.522;2023-01-29T15:26:33;9.56;82.07
68912;SHT31;55953;51.650;-0.522;2023-01-29T15:29:02;9.59;82.09
68912;SHT31;55953;51.650;-0.522;2023-01-29T15:31:32;9.51;81.98
68912;SHT31;55953;51.650;-0.522;2023-01-29T15:34:03;9.40;82.20
68912;SHT31;55953;51.650;-0.522;2023-01-29T15:36:35;9.32;82.39
68912;SHT31;55953;51.650;-0.522;2023-01-29T15:39:24;9.25;82.53
68912;SHT31;55953;51.650;-0.522;2023-01-29T15:42:12;9.22;82.67
68912;SHT31;55953;51.650;-0.522;2023-01-29T15:44:50;9.18;82.78
68912;SHT31;55953;51.650;-0.522;2023-01-29T15:47:24;9.17;82.84
68912;SHT31;55953;51.650;-0.522;2023-01-29T15:49:58;9.13;82.96
68912;SHT31;55953;51.650;-0.522;2023-01-29T15:52:27;9.09;83.03
68912;SHT31;55953;51.650;-0.522;2023-01-29T15:55:02;9.04;83.14
68912;SHT31;55953;51.650;-0.522;2023-01-29T15:57:35;9.02;83.14
68912;SHT31;55953;51.650;-0.522;2023-01-29T16:00:08;9.00;83.14
68912;SHT31;55953;51.650;-0.522;2023-01-29T16:02:55;8.95;83.16
68912;SHT31;55953;51.650;-0.522;2023-01-29T16:05:28;8.91;83.28
68912;SHT31;55953;51.650;-0.522;2023-01-29T16:07:59;8.86;83.44
68912;SHT31;55953;51.650;-0.522;2023-01-29T16:10:29;8.85;83.48
68912;SHT31;55953;51.650;-0.522;2023-01-29T16:12:59;8.83;83.52
68912;SHT31;55953;51.650;-0.522;2023-01-29T16:18:23;8.77;83.55
68912;SHT31;55953;51.650;-0.522;2023-01-29T16:21:03;8.74;83.56
68912;SHT31;55953;51.650;-0.522;2023-01-29T16:23:41;8.70;83.56
68912;SHT31;55953;51.650;-0.522;2023-01-29T16:26:19;8.66;83.61
68912;SHT31;55953;51.650;-0.522;2023-01-29T16:28:52;8.63;83.67
68912;SHT31;55953;51.650;-0.522;2023-01-29T16:31:28;8.60;83.61
68912;SHT31;55953;51.650;-0.522;2023-01-29T16:34:04;8.57;83.58
68912;SHT31;55953;51.650;-0.522;2023-01-29T16:36:36;8.50;83.73
68912;SHT31;55953;51.650;-0.522;2023-01-29T16:39:16;8.44;83.96
68912;SHT31;55953;51.650;-0.522;2023-01-29T16:42:06;8.40;84.11
68912;SHT31;55953;51.650;-0.522;2023-01-29T16:47:28;8.25;84.45
68912;SHT31;55953;51.650;-0.522;2023-01-29T16:52:55;8.15;85.00
68912;SHT31;55953;51.650;-0.522;2023-01-29T16:55:32;8.10;85.08
68912;SHT31;55953;51.650;-0.522;2023-01-29T16:58:11;8.04;85.35
68912;SHT31;55953;51.650;-0.522;2023-01-29T17:00:52;8.01;85.49
68912;SHT31;55953;51.650;-0.522;2023-01-29T17:03:28;7.95;85.62
68912;SHT31;55953;51.650;-0.522;2023-01-29T17:06:17;7.91;85.89
68912;SHT31;55953;51.650;-0.522;2023-01-29T17:08:49;7.90;85.88
68912;SHT31;55953;51.650;-0.522;2023-01-29T17:14:03;7.84;86.24
68912;SHT31;55953;51.650;-0.522;2023-01-29T17:16:35;7.85;86.28
68912;SHT31;55953;51.650;-0.522;2023-01-29T17:19:15;7.83;86.18
68912;SHT31;55953;51.650;-0.522;2023-01-29T17:21:51;7.83;86.25
68912;SHT31;55953;51.650;-0.522;2023-01-29T17:24:19;7.81;86.21
68912;SHT31;55953;51.650;-0.522;2023-01-29T17:26:47;7.77;86.44
68912;SHT31;55953;51.650;-0.522;2023-01-29T17:29:20;7.76;86.57
68912;SHT31;55953;51.650;-0.522;2023-01-29T17:31:54;7.72;86.37
68912;SHT31;55953;51.650;-0.522;2023-01-29T17:34:23;7.66;86.33
68912;SHT31;55953;51.650;-0.522;2023-01-29T17:36:51;7.62;86.56
68912;SHT31;55953;51.650;-0.522;2023-01-29T17:39:19;7.55;86.57
68912;SHT31;55953;51.650;-0.522;2023-01-29T17:41:51;7.50;86.73
68912;SHT31;55953;51.650;-0.522;2023-01-29T17:44:22;7.46;86.95
68912;SHT31;55953;51.650;-0.522;2023-01-29T17:46:54;7.44;87.03
68912;SHT31;55953;51.650;-0.522;2023-01-29T17:49:23;7.42;87.11
68912;SHT31;55953;51.650;-0.522;2023-01-29T17:51:54;7.41;86.98
68912;SHT31;55953;51.650;-0.522;2023-01-29T17:54:23;7.39;87.14
68912;SHT31;55953;51.650;-0.522;2023-01-29T17:56:52;7.40;87.25
68912;SHT31;55953;51.650;-0.522;2023-01-29T17:59:30;7.38;87.11
68912;SHT31;55953;51.650;-0.522;2023-01-29T18:01:59;7.38;87.06
68912;SHT31;55953;51.650;-0.522;2023-01-29T18:04:27;7.38;87.10
68912;SHT31;55953;51.650;-0.522;2023-01-29T18:06:55;7.36;86.90
68912;SHT31;55953;51.650;-0.522;2023-01-29T18:09:24;7.35;86.88
68912;SHT31;55953;51.650;-0.522;2023-01-29T18:11:52;7.34;86.83
68912;SHT31;55953;51.650;-0.522;2023-01-29T18:14:20;7.32;86.76
68912;SHT31;55953;51.650;-0.522;2023-01-29T18:16:48;7.33;86.64
68912;SHT31;55953;51.650;-0.522;2023-01-29T18:19:20;7.32;86.54
68912;SHT31;55953;51.650;-0.522;2023-01-29T18:21:53;7.28;86.43
68912;SHT31;55953;51.650;-0.522;2023-01-29T18:24:22;7.26;86.45
68912;SHT31;55953;51.650;-0.522;2023-01-29T18:26:53;7.25;86.27
68912;SHT31;55953;51.650;-0.522;2023-01-29T18:29:20;7.20;86.24
68912;SHT31;55953;51.650;-0.522;2023-01-29T18:31:48;7.16;86.16
68912;SHT31;55953;51.650;-0.522;2023-01-29T18:34:16;7.12;86.30
68912;SHT31;55953;51.650;-0.522;2023-01-29T18:36:44;7.09;86.11
68912;SHT31;55953;51.650;-0.522;2023-01-29T18:39:14;7.05;86.09
68912;SHT31;55953;51.650;-0.522;2023-01-29T18:41:43;7.03;86.06
68912;SHT31;55953;51.650;-0.522;2023-01-29T18:44:11;7.00;85.87
68912;SHT31;55953;51.650;-0.522;2023-01-29T18:46:39;6.99;85.71
68912;SHT31;55953;51.650;-0.522;2023-01-29T18:49:07;6.98;85.50
68912;SHT31;55953;51.650;-0.522;2023-01-29T18:51:35;6.98;85.19
68912;SHT31;55953;51.650;-0.522;2023-01-29T18:54:03;6.95;85.03
68912;SHT31;55953;51.650;-0.522;2023-01-29T18:56:31;6.92;84.89
68912;SHT31;55953;51.650;-0.522;2023-01-29T18:58:59;6.90;84.79
68912;SHT31;55953;51.650;-0.522;2023-01-29T19:01:27;6.87;84.56
68912;SHT31;55953;51.650;-0.522;2023-01-29T19:03:55;6.85;84.50
68912;SHT31;55953;51.650;-0.522;2023-01-29T19:06:25;6.80;84.47